logo
Search for airport 
image banner adimage banner adimage banner ad
image banner ad

YXNT - Natural Arch

Located in Natural Bridge, Australia

ICAO - , IATA -

Data provided by Airmate  

General information

Coordinates: S28°13'0" E153°13'60"
Elevation is 774 feet MSL.
Magnetic variation is 11° East
View others Airports in Queensland

Operational data

Special qualification required
Current time UTC:
Current local time:
Weather at : YBCG - Gold Coast ( 27 km )
METAR: YBCG 250430Z AUTO 34003KT 9999 // SCT037 OVC063 20/15 Q1021
TAF: TAF YBCG 250207Z 2503/2600 02010KT 9999 -SHRA SCT040 FM250900 VRB05KT 9999 -SHRA FEW025 SCT040 FM251100 32005KT 9999 NSW FEW035 INTER 2503/2506 4000 SHRA SCT020 BKN040
View NOTAMs / SUP AIP / TFR affecting this airport [VIEW]
Communications frequencies: [VIEW]

Runways:

Airport contact information

Address: Natural Bridge Australia

Satellite view of YXNT